sensor_id;sensor_type;location;lat;lon;timestamp;P1;durP1;ratioP1;P2;durP2;ratioP2
47089;SDS011;32840;52.516;13.294;2024-02-16T00:01:39;6.43;;;4.47;;
47089;SDS011;32840;52.516;13.294;2024-02-16T00:04:24;8.07;;;5.20;;
47089;SDS011;32840;52.516;13.294;2024-02-16T00:07:10;8.90;;;5.63;;
47089;SDS011;32840;52.516;13.294;2024-02-16T00:09:59;7.05;;;4.70;;
47089;SDS011;32840;52.516;13.294;2024-02-16T00:12:45;8.77;;;5.10;;
47089;SDS011;32840;52.516;13.294;2024-02-16T00:15:32;9.50;;;5.78;;
47089;SDS011;32840;52.516;13.294;2024-02-16T00:18:17;6.75;;;5.20;;
47089;SDS011;32840;52.516;13.294;2024-02-16T00:21:02;8.10;;;5.68;;
47089;SDS011;32840;52.516;13.294;2024-02-16T00:23:50;7.90;;;5.40;;
47089;SDS011;32840;52.516;13.294;2024-02-16T00:26:38;7.85;;;5.40;;
47089;SDS011;32840;52.516;13.294;2024-02-16T00:29:28;7.00;;;5.43;;
47089;SDS011;32840;52.516;13.294;2024-02-16T00:32:18;7.60;;;6.20;;
47089;SDS011;32840;52.516;13.294;2024-02-16T00:35:15;7.80;;;5.93;;
47089;SDS011;32840;52.516;13.294;2024-02-16T00:38:03;9.65;;;6.47;;
47089;SDS011;32840;52.516;13.294;2024-02-16T00:40:48;8.73;;;6.50;;
47089;SDS011;32840;52.516;13.294;2024-02-16T00:43:37;8.73;;;6.82;;
47089;SDS011;32840;52.516;13.294;2024-02-16T00:46:25;9.82;;;7.30;;
47089;SDS011;32840;52.516;13.294;2024-02-16T00:49:20;9.38;;;7.13;;
47089;SDS011;32840;52.516;13.294;2024-02-16T00:52:05;11.75;;;8.35;;
47089;SDS011;32840;52.516;13.294;2024-02-16T00:54:54;11.18;;;8.00;;
47089;SDS011;32840;52.516;13.294;2024-02-16T00:57:49;11.00;;;8.10;;
47089;SDS011;32840;52.516;13.294;2024-02-16T01:00:34;13.50;;;8.98;;
47089;SDS011;32840;52.516;13.294;2024-02-16T01:03:20;11.00;;;8.27;;
47089;SDS011;32840;52.516;13.294;2024-02-16T01:09:43;12.98;;;9.88;;
47089;SDS011;32840;52.516;13.294;2024-02-16T01:12:27;13.45;;;9.68;;
47089;SDS011;32840;52.516;13.294;2024-02-16T01:15:15;13.80;;;10.23;;
47089;SDS011;32840;52.516;13.294;2024-02-16T01:17:59;15.15;;;10.90;;
47089;SDS011;32840;52.516;13.294;2024-02-16T01:20:46;16.00;;;10.93;;
47089;SDS011;32840;52.516;13.294;2024-02-16T01:23:31;14.15;;;10.20;;
47089;SDS011;32840;52.516;13.294;2024-02-16T01:26:16;15.68;;;10.50;;
47089;SDS011;32840;52.516;13.294;2024-02-16T01:29:02;19.17;;;11.05;;
47089;SDS011;32840;52.516;13.294;2024-02-16T01:31:47;16.60;;;10.98;;
47089;SDS011;32840;52.516;13.294;2024-02-16T01:34:34;14.68;;;11.18;;
47089;SDS011;32840;52.516;13.294;2024-02-16T01:37:19;16.52;;;11.68;;
47089;SDS011;32840;52.516;13.294;2024-02-16T01:40:04;15.75;;;11.20;;
47089;SDS011;32840;52.516;13.294;2024-02-16T01:42:53;17.02;;;11.52;;
47089;SDS011;32840;52.516;13.294;2024-02-16T01:45:39;21.13;;;13.00;;
47089;SDS011;32840;52.516;13.294;2024-02-16T01:48:25;17.40;;;12.65;;
47089;SDS011;32840;52.516;13.294;2024-02-16T01:51:11;17.15;;;12.55;;
47089;SDS011;32840;52.516;13.294;2024-02-16T01:54:01;17.65;;;12.43;;
47089;SDS011;32840;52.516;13.294;2024-02-16T01:56:47;17.85;;;13.05;;
47089;SDS011;32840;52.516;13.294;2024-02-16T01:59:35;16.88;;;12.73;;
47089;SDS011;32840;52.516;13.294;2024-02-16T02:02:21;19.27;;;13.77;;
47089;SDS011;32840;52.516;13.294;2024-02-16T02:05:06;20.52;;;13.32;;
47089;SDS011;32840;52.516;13.294;2024-02-16T02:07:51;21.38;;;15.02;;
47089;SDS011;32840;52.516;13.294;2024-02-16T02:10:37;19.38;;;14.70;;
47089;SDS011;32840;52.516;13.294;2024-02-16T02:13:22;20.00;;;14.00;;
47089;SDS011;32840;52.516;13.294;2024-02-16T02:16:09;21.77;;;15.80;;
47089;SDS011;32840;52.516;13.294;2024-02-16T02:18:54;21.80;;;16.08;;
47089;SDS011;32840;52.516;13.294;2024-02-16T02:21:53;21.17;;;15.82;;
47089;SDS011;32840;52.516;13.294;2024-02-16T02:24:40;24.48;;;15.52;;
47089;SDS011;32840;52.516;13.294;2024-02-16T02:27:26;23.08;;;15.02;;
47089;SDS011;32840;52.516;13.294;2024-02-16T02:30:11;18.83;;;14.48;;
47089;SDS011;32840;52.516;13.294;2024-02-16T02:32:56;19.80;;;14.23;;
47089;SDS011;32840;52.516;13.294;2024-02-16T02:35:41;21.20;;;14.23;;
47089;SDS011;32840;52.516;13.294;2024-02-16T02:38:27;19.73;;;13.95;;
47089;SDS011;32840;52.516;13.294;2024-02-16T02:41:13;22.23;;;15.07;;
47089;SDS011;32840;52.516;13.294;2024-02-16T02:44:03;21.92;;;14.82;;
47089;SDS011;32840;52.516;13.294;2024-02-16T02:46:49;22.42;;;14.07;;
47089;SDS011;32840;52.516;13.294;2024-02-16T02:49:34;26.10;;;15.23;;
47089;SDS011;32840;52.516;13.294;2024-02-16T02:52:20;22.45;;;15.07;;
47089;SDS011;32840;52.516;13.294;2024-02-16T02:55:06;21.58;;;14.88;;
47089;SDS011;32840;52.516;13.294;2024-02-16T02:57:51;23.45;;;15.70;;
47089;SDS011;32840;52.516;13.294;2024-02-16T03:00:39;24.40;;;15.88;;
47089;SDS011;32840;52.516;13.294;2024-02-16T03:03:26;22.95;;;15.38;;
47089;SDS011;32840;52.516;13.294;2024-02-16T03:06:17;22.55;;;15.63;;
47089;SDS011;32840;52.516;13.294;2024-02-16T03:09:05;25.02;;;15.88;;
47089;SDS011;32840;52.516;13.294;2024-02-16T03:11:51;21.77;;;15.05;;
47089;SDS011;32840;52.516;13.294;2024-02-16T03:14:36;19.70;;;15.02;;
47089;SDS011;32840;52.516;13.294;2024-02-16T03:17:23;21.75;;;15.32;;
47089;SDS011;32840;52.516;13.294;2024-02-16T03:20:09;21.08;;;15.20;;
47089;SDS011;32840;52.516;13.294;2024-02-16T03:22:55;22.08;;;16.05;;
47089;SDS011;32840;52.516;13.294;2024-02-16T03:25:41;22.30;;;14.95;;
47089;SDS011;32840;52.516;13.294;2024-02-16T03:28:26;22.45;;;15.57;;
47089;SDS011;32840;52.516;13.294;2024-02-16T03:31:14;22.52;;;15.93;;
47089;SDS011;32840;52.516;13.294;2024-02-16T03:34:04;25.33;;;15.52;;
47089;SDS011;32840;52.516;13.294;2024-02-16T03:36:50;23.02;;;15.80;;
47089;SDS011;32840;52.516;13.294;2024-02-16T03:39:35;22.45;;;15.95;;
47089;SDS011;32840;52.516;13.294;2024-02-16T03:42:20;21.15;;;14.90;;
47089;SDS011;32840;52.516;13.294;2024-02-16T03:45:05;20.20;;;15.77;;
47089;SDS011;32840;52.516;13.294;2024-02-16T03:47:51;21.85;;;15.48;;
47089;SDS011;32840;52.516;13.294;2024-02-16T03:50:38;23.05;;;14.77;;
47089;SDS011;32840;52.516;13.294;2024-02-16T03:53:24;22.83;;;15.25;;
47089;SDS011;32840;52.516;13.294;2024-02-16T03:56:10;25.33;;;15.32;;
47089;SDS011;32840;52.516;13.294;2024-02-16T03:58:56;21.98;;;15.80;;
47089;SDS011;32840;52.516;13.294;2024-02-16T04:01:41;21.23;;;14.82;;
47089;SDS011;32840;52.516;13.294;2024-02-16T04:04:27;23.30;;;15.02;;
47089;SDS011;32840;52.516;13.294;2024-02-16T04:07:12;23.48;;;15.43;;
47089;SDS011;32840;52.516;13.294;2024-02-16T04:09:57;24.13;;;15.68;;
47089;SDS011;32840;52.516;13.294;2024-02-16T04:12:42;24.70;;;16.05;;
47089;SDS011;32840;52.516;13.294;2024-02-16T04:15:27;26.08;;;16.00;;
47089;SDS011;32840;52.516;13.294;2024-02-16T04:18:14;22.98;;;16.00;;
47089;SDS011;32840;52.516;13.294;2024-02-16T04:20:59;21.52;;;15.82;;
47089;SDS011;32840;52.516;13.294;2024-02-16T04:23:44;25.65;;;16.25;;
47089;SDS011;32840;52.516;13.294;2024-02-16T04:26:31;26.33;;;15.88;;
47089;SDS011;32840;52.516;13.294;2024-02-16T04:29:16;23.75;;;15.50;;
47089;SDS011;32840;52.516;13.294;2024-02-16T04:32:02;21.90;;;14.88;;
47089;SDS011;32840;52.516;13.294;2024-02-16T04:34:47;22.50;;;14.38;;
47089;SDS011;32840;52.516;13.294;2024-02-16T04:37:33;26.27;;;16.08;;
47089;SDS011;32840;52.516;13.294;2024-02-16T04:40:19;22.52;;;14.75;;
47089;SDS011;32840;52.516;13.294;2024-02-16T04:43:04;24.65;;;15.45;;
47089;SDS011;32840;52.516;13.294;2024-02-16T04:45:50;22.23;;;14.23;;
47089;SDS011;32840;52.516;13.294;2024-02-16T04:48:34;23.50;;;15.15;;
47089;SDS011;32840;52.516;13.294;2024-02-16T04:51:20;21.27;;;14.60;;
47089;SDS011;32840;52.516;13.294;2024-02-16T04:54:05;22.17;;;15.77;;
47089;SDS011;32840;52.516;13.294;2024-02-16T04:56:52;21.58;;;14.88;;
47089;SDS011;32840;52.516;13.294;2024-02-16T04:59:42;22.45;;;15.38;;
47089;SDS011;32840;52.516;13.294;2024-02-16T05:02:30;21.58;;;15.23;;
47089;SDS011;32840;52.516;13.294;2024-02-16T05:05:16;21.98;;;15.48;;
47089;SDS011;32840;52.516;13.294;2024-02-16T05:08:06;22.92;;;15.45;;
47089;SDS011;32840;52.516;13.294;2024-02-16T05:10:51;26.77;;;15.95;;
47089;SDS011;32840;52.516;13.294;2024-02-16T05:13:37;21.92;;;15.85;;
47089;SDS011;32840;52.516;13.294;2024-02-16T05:16:23;24.40;;;15.73;;
47089;SDS011;32840;52.516;13.294;2024-02-16T05:19:08;19.77;;;13.30;;
47089;SDS011;32840;52.516;13.294;2024-02-16T05:21:53;24.52;;;15.07;;
47089;SDS011;32840;52.516;13.294;2024-02-16T05:24:39;21.08;;;14.30;;
47089;SDS011;32840;52.516;13.294;2024-02-16T05:27:24;22.73;;;14.25;;
47089;SDS011;32840;52.516;13.294;2024-02-16T05:30:09;21.95;;;13.93;;
47089;SDS011;32840;52.516;13.294;2024-02-16T05:32:57;20.80;;;14.48;;
47089;SDS011;32840;52.516;13.294;2024-02-16T05:35:42;21.60;;;13.90;;
47089;SDS011;32840;52.516;13.294;2024-02-16T05:38:29;20.67;;;13.60;;
47089;SDS011;32840;52.516;13.294;2024-02-16T05:41:24;22.65;;;13.43;;
47089;SDS011;32840;52.516;13.294;2024-02-16T05:44:17;18.75;;;12.65;;
47089;SDS011;32840;52.516;13.294;2024-02-16T05:47:04;24.70;;;13.10;;
47089;SDS011;32840;52.516;13.294;2024-02-16T05:49:53;19.02;;;12.45;;
47089;SDS011;32840;52.516;13.294;2024-02-16T05:52:43;17.13;;;12.07;;
47089;SDS011;32840;52.516;13.294;2024-02-16T05:55:36;18.75;;;12.52;;
47089;SDS011;32840;52.516;13.294;2024-02-16T05:58:21;18.80;;;12.55;;
47089;SDS011;32840;52.516;13.294;2024-02-16T06:01:07;20.05;;;12.65;;
47089;SDS011;32840;52.516;13.294;2024-02-16T06:03:56;19.35;;;12.10;;
47089;SDS011;32840;52.516;13.294;2024-02-16T06:06:44;17.55;;;11.98;;
47089;SDS011;32840;52.516;13.294;2024-02-16T06:09:31;19.83;;;12.15;;
47089;SDS011;32840;52.516;13.294;2024-02-16T06:12:17;22.17;;;13.07;;
47089;SDS011;32840;52.516;13.294;2024-02-16T06:15:24;20.38;;;12.40;;
47089;SDS011;32840;52.516;13.294;2024-02-16T06:18:12;18.48;;;12.52;;
47089;SDS011;32840;52.516;13.294;2024-02-16T06:21:05;18.85;;;12.73;;
47089;SDS011;32840;52.516;13.294;2024-02-16T06:23:50;19.15;;;12.05;;
47089;SDS011;32840;52.516;13.294;2024-02-16T06:26:36;20.05;;;11.75;;
47089;SDS011;32840;52.516;13.294;2024-02-16T06:29:21;20.88;;;12.73;;
47089;SDS011;32840;52.516;13.294;2024-02-16T06:32:06;18.13;;;11.25;;
47089;SDS011;32840;52.516;13.294;2024-02-16T06:42:36;20.45;;;12.35;;
47089;SDS011;32840;52.516;13.294;2024-02-16T06:45:22;19.73;;;12.52;;
47089;SDS011;32840;52.516;13.294;2024-02-16T06:48:12;19.58;;;12.95;;
47089;SDS011;32840;52.516;13.294;2024-02-16T06:50:57;19.42;;;12.57;;
47089;SDS011;32840;52.516;13.294;2024-02-16T06:53:42;18.23;;;12.27;;
47089;SDS011;32840;52.516;13.294;2024-02-16T06:56:29;23.33;;;13.40;;
47089;SDS011;32840;52.516;13.294;2024-02-16T06:59:14;18.80;;;12.63;;
47089;SDS011;32840;52.516;13.294;2024-02-16T07:02:01;22.27;;;14.27;;
47089;SDS011;32840;52.516;13.294;2024-02-16T07:04:46;18.92;;;12.32;;
47089;SDS011;32840;52.516;13.294;2024-02-16T07:07:32;23.08;;;12.82;;
47089;SDS011;32840;52.516;13.294;2024-02-16T07:10:28;23.73;;;13.15;;
47089;SDS011;32840;52.516;13.294;2024-02-16T07:13:12;21.45;;;12.57;;
47089;SDS011;32840;52.516;13.294;2024-02-16T07:16:05;19.00;;;13.20;;
47089;SDS011;32840;52.516;13.294;2024-02-16T07:19:04;19.50;;;11.90;;
47089;SDS011;32840;52.516;13.294;2024-02-16T07:21:55;16.38;;;11.07;;
47089;SDS011;32840;52.516;13.294;2024-02-16T07:24:42;18.00;;;11.82;;
47089;SDS011;32840;52.516;13.294;2024-02-16T07:27:28;19.45;;;11.73;;
47089;SDS011;32840;52.516;13.294;2024-02-16T07:30:16;18.38;;;12.07;;
47089;SDS011;32840;52.516;13.294;2024-02-16T07:33:06;18.73;;;11.63;;
47089;SDS011;32840;52.516;13.294;2024-02-16T07:35:54;20.63;;;12.82;;
47089;SDS011;32840;52.516;13.294;2024-02-16T07:38:40;18.83;;;12.27;;
47089;SDS011;32840;52.516;13.294;2024-02-16T07:41:26;19.25;;;11.23;;
47089;SDS011;32840;52.516;13.294;2024-02-16T07:44:14;17.25;;;11.25;;
47089;SDS011;32840;52.516;13.294;2024-02-16T07:46:59;18.70;;;11.35;;
47089;SDS011;32840;52.516;13.294;2024-02-16T07:50:00;19.27;;;12.35;;
47089;SDS011;32840;52.516;13.294;2024-02-16T07:52:50;18.70;;;11.45;;
47089;SDS011;32840;52.516;13.294;2024-02-16T07:55:35;16.45;;;10.65;;
47089;SDS011;32840;52.516;13.294;2024-02-16T07:58:23;16.95;;;10.80;;
47089;SDS011;32840;52.516;13.294;2024-02-16T08:01:13;18.85;;;11.13;;
47089;SDS011;32840;52.516;13.294;2024-02-16T08:04:01;15.45;;;10.55;;
47089;SDS011;32840;52.516;13.294;2024-02-16T08:06:53;18.65;;;12.93;;
47089;SDS011;32840;52.516;13.294;2024-02-16T08:09:43;18.88;;;11.82;;
47089;SDS011;32840;52.516;13.294;2024-02-16T08:12:29;16.83;;;9.85;;
47089;SDS011;32840;52.516;13.294;2024-02-16T08:15:19;17.23;;;9.17;;
47089;SDS011;32840;52.516;13.294;2024-02-16T08:18:10;13.52;;;9.50;;
47089;SDS011;32840;52.516;13.294;2024-02-16T08:20:57;15.40;;;11.00;;
47089;SDS011;32840;52.516;13.294;2024-02-16T08:23:42;13.95;;;9.48;;
47089;SDS011;32840;52.516;13.294;2024-02-16T08:26:38;17.40;;;9.70;;
47089;SDS011;32840;52.516;13.294;2024-02-16T08:29:23;14.52;;;9.77;;
47089;SDS011;32840;52.516;13.294;2024-02-16T08:32:10;15.65;;;9.30;;
47089;SDS011;32840;52.516;13.294;2024-02-16T08:34:56;15.88;;;9.85;;
47089;SDS011;32840;52.516;13.294;2024-02-16T08:37:52;15.25;;;9.88;;
47089;SDS011;32840;52.516;13.294;2024-02-16T08:40:42;25.23;;;9.48;;
47089;SDS011;32840;52.516;13.294;2024-02-16T08:43:33;14.63;;;9.73;;
47089;SDS011;32840;52.516;13.294;2024-02-16T08:46:19;13.73;;;8.90;;
47089;SDS011;32840;52.516;13.294;2024-02-16T08:49:10;15.30;;;8.73;;
47089;SDS011;32840;52.516;13.294;2024-02-16T08:53:15;13.68;;;7.78;;
47089;SDS011;32840;52.516;13.294;2024-02-16T08:55:47;12.25;;;8.38;;
47089;SDS011;32840;52.516;13.294;2024-02-16T08:58:32;12.05;;;7.55;;
47089;SDS011;32840;52.516;13.294;2024-02-16T09:01:35;13.40;;;8.57;;
47089;SDS011;32840;52.516;13.294;2024-02-16T09:04:23;9.70;;;7.22;;
47089;SDS011;32840;52.516;13.294;2024-02-16T09:07:07;14.20;;;7.93;;
47089;SDS011;32840;52.516;13.294;2024-02-16T09:09:56;12.35;;;7.07;;
47089;SDS011;32840;52.516;13.294;2024-02-16T09:12:42;10.93;;;7.18;;
47089;SDS011;32840;52.516;13.294;2024-02-16T09:15:28;10.70;;;7.22;;
47089;SDS011;32840;52.516;13.294;2024-02-16T09:18:13;10.93;;;6.80;;
47089;SDS011;32840;52.516;13.294;2024-02-16T09:21:02;10.52;;;8.13;;
47089;SDS011;32840;52.516;13.294;2024-02-16T09:23:55;12.98;;;6.97;;
47089;SDS011;32840;52.516;13.294;2024-02-16T09:26:45;12.93;;;7.43;;
47089;SDS011;32840;52.516;13.294;2024-02-16T09:29:34;14.65;;;7.30;;
47089;SDS011;32840;52.516;13.294;2024-02-16T09:32:19;10.50;;;6.63;;
47089;SDS011;32840;52.516;13.294;2024-02-16T09:35:09;8.80;;;5.38;;
47089;SDS011;32840;52.516;13.294;2024-02-16T09:38:25;10.50;;;5.90;;
47089;SDS011;32840;52.516;13.294;2024-02-16T09:41:13;8.88;;;5.97;;
47089;SDS011;32840;52.516;13.294;2024-02-16T09:44:00;9.98;;;6.07;;
47089;SDS011;32840;52.516;13.294;2024-02-16T09:46:54;10.50;;;6.22;;
47089;SDS011;32840;52.516;13.294;2024-02-16T09:49:40;10.30;;;5.65;;
47089;SDS011;32840;52.516;13.294;2024-02-16T09:52:25;8.23;;;5.28;;
47089;SDS011;32840;52.516;13.294;2024-02-16T09:55:14;9.75;;;5.45;;
47089;SDS011;32840;52.516;13.294;2024-02-16T09:58:03;8.70;;;5.03;;
47089;SDS011;32840;52.516;13.294;2024-02-16T10:00:49;8.00;;;5.32;;
47089;SDS011;32840;52.516;13.294;2024-02-16T10:04:16;9.82;;;5.22;;
47089;SDS011;32840;52.516;13.294;2024-02-16T10:07:10;8.38;;;5.03;;
47089;SDS011;32840;52.516;13.294;2024-02-16T10:10:01;9.90;;;5.80;;
47089;SDS011;32840;52.516;13.294;2024-02-16T10:13:01;10.48;;;5.75;;
47089;SDS011;32840;52.516;13.294;2024-02-16T10:16:21;6.93;;;4.85;;
47089;SDS011;32840;52.516;13.294;2024-02-16T10:19:08;9.63;;;5.40;;
47089;SDS011;32840;52.516;13.294;2024-02-16T10:22:05;12.43;;;5.60;;
47089;SDS011;32840;52.516;13.294;2024-02-16T10:25:09;6.30;;;4.68;;
47089;SDS011;32840;52.516;13.294;2024-02-16T10:28:05;14.10;;;8.55;;
47089;SDS011;32840;52.516;13.294;2024-02-16T10:31:11;12.80;;;6.50;;
47089;SDS011;32840;52.516;13.294;2024-02-16T10:34:14;8.82;;;5.40;;
47089;SDS011;32840;52.516;13.294;2024-02-16T10:37:03;11.10;;;6.72;;
47089;SDS011;32840;52.516;13.294;2024-02-16T10:40:03;12.38;;;6.32;;
47089;SDS011;32840;52.516;13.294;2024-02-16T10:42:58;10.38;;;6.00;;
47089;SDS011;32840;52.516;13.294;2024-02-16T10:46:20;10.70;;;6.38;;
47089;SDS011;32840;52.516;13.294;2024-02-16T10:49:50;17.00;;;10.25;;
47089;SDS011;32840;52.516;13.294;2024-02-16T10:52:37;9.45;;;6.00;;
47089;SDS011;32840;52.516;13.294;2024-02-16T10:55:28;12.57;;;8.18;;
47089;SDS011;32840;52.516;13.294;2024-02-16T10:58:13;16.08;;;11.27;;
47089;SDS011;32840;52.516;13.294;2024-02-16T11:01:07;8.63;;;5.70;;
47089;SDS011;32840;52.516;13.294;2024-02-16T11:04:01;22.48;;;14.85;;
47089;SDS011;32840;52.516;13.294;2024-02-16T11:06:55;13.75;;;7.15;;
47089;SDS011;32840;52.516;13.294;2024-02-16T11:09:46;10.45;;;6.60;;
47089;SDS011;32840;52.516;13.294;2024-02-16T11:12:38;15.48;;;9.68;;
47089;SDS011;32840;52.516;13.294;2024-02-16T11:15:35;9.57;;;5.90;;
47089;SDS011;32840;52.516;13.294;2024-02-16T11:19:00;11.23;;;6.13;;
47089;SDS011;32840;52.516;13.294;2024-02-16T11:22:05;11.00;;;6.20;;
47089;SDS011;32840;52.516;13.294;2024-02-16T11:25:13;13.52;;;6.10;;
47089;SDS011;32840;52.516;13.294;2024-02-16T11:28:31;8.70;;;6.18;;
47089;SDS011;32840;52.516;13.294;2024-02-16T11:31:27;10.52;;;6.10;;
47089;SDS011;32840;52.516;13.294;2024-02-16T11:37:16;9.57;;;5.95;;
47089;SDS011;32840;52.516;13.294;2024-02-16T11:40:21;14.73;;;5.90;;
47089;SDS011;32840;52.516;13.294;2024-02-16T11:43:19;12.25;;;6.40;;
47089;SDS011;32840;52.516;13.294;2024-02-16T11:46:29;8.85;;;5.95;;
47089;SDS011;32840;52.516;13.294;2024-02-16T11:49:37;16.55;;;8.00;;
47089;SDS011;32840;52.516;13.294;2024-02-16T11:52:22;8.80;;;5.82;;
47089;SDS011;32840;52.516;13.294;2024-02-16T11:55:12;10.35;;;5.65;;
47089;SDS011;32840;52.516;13.294;2024-02-16T11:58:59;11.65;;;6.03;;
47089;SDS011;32840;52.516;13.294;2024-02-16T12:03:10;9.43;;;5.43;;
47089;SDS011;32840;52.516;13.294;2024-02-16T12:07:06;5.68;;;3.80;;
47089;SDS011;32840;52.516;13.294;2024-02-16T12:13:51;9.25;;;5.10;;
47089;SDS011;32840;52.516;13.294;2024-02-16T12:17:58;7.45;;;4.32;;
47089;SDS011;32840;52.516;13.294;2024-02-16T12:21:52;8.25;;;5.00;;
47089;SDS011;32840;52.516;13.294;2024-02-16T12:25:08;9.93;;;5.20;;
47089;SDS011;32840;52.516;13.294;2024-02-16T12:27:59;6.93;;;3.42;;
47089;SDS011;32840;52.516;13.294;2024-02-16T12:31:43;5.35;;;3.60;;
47089;SDS011;32840;52.516;13.294;2024-02-16T12:34:37;8.85;;;4.68;;
47089;SDS011;32840;52.516;13.294;2024-02-16T12:37:31;8.65;;;3.83;;
47089;SDS011;32840;52.516;13.294;2024-02-16T12:40:56;11.20;;;5.32;;
47089;SDS011;32840;52.516;13.294;2024-02-16T12:44:34;4.43;;;3.00;;
47089;SDS011;32840;52.516;13.294;2024-02-16T12:47:27;7.10;;;3.07;;
47089;SDS011;32840;52.516;13.294;2024-02-16T12:50:43;7.30;;;5.07;;
47089;SDS011;32840;52.516;13.294;2024-02-16T12:53:45;16.05;;;9.45;;
47089;SDS011;32840;52.516;13.294;2024-02-16T12:56:48;7.75;;;4.47;;
47089;SDS011;32840;52.516;13.294;2024-02-16T13:00:10;8.02;;;3.55;;
47089;SDS011;32840;52.516;13.294;2024-02-16T13:03:04;4.78;;;3.50;;
47089;SDS011;32840;52.516;13.294;2024-02-16T13:06:11;7.38;;;2.72;;
47089;SDS011;32840;52.516;13.294;2024-02-16T13:09:01;5.38;;;3.10;;
47089;SDS011;32840;52.516;13.294;2024-02-16T13:12:05;6.25;;;2.42;;
47089;SDS011;32840;52.516;13.294;2024-02-16T13:15:12;8.48;;;2.75;;
47089;SDS011;32840;52.516;13.294;2024-02-16T13:25:35;4.78;;;2.60;;
47089;SDS011;32840;52.516;13.294;2024-02-16T13:28:55;8.40;;;3.80;;
47089;SDS011;32840;52.516;13.294;2024-02-16T13:32:29;11.10;;;3.35;;
47089;SDS011;32840;52.516;13.294;2024-02-16T13:35:22;7.82;;;2.85;;
47089;SDS011;32840;52.516;13.294;2024-02-16T13:38:08;6.40;;;2.75;;
47089;SDS011;32840;52.516;13.294;2024-02-16T13:41:18;7.20;;;2.45;;
47089;SDS011;32840;52.516;13.294;2024-02-16T13:44:06;14.15;;;8.20;;
47089;SDS011;32840;52.516;13.294;2024-02-16T13:46:54;5.60;;;2.95;;
47089;SDS011;32840;52.516;13.294;2024-02-16T13:49:42;6.13;;;2.92;;
47089;SDS011;32840;52.516;13.294;2024-02-16T13:52:31;8.88;;;2.20;;
47089;SDS011;32840;52.516;13.294;2024-02-16T13:55:20;6.90;;;2.05;;
47089;SDS011;32840;52.516;13.294;2024-02-16T13:58:06;6.72;;;2.10;;
47089;SDS011;32840;52.516;13.294;2024-02-16T14:00:58;3.72;;;2.10;;
47089;SDS011;32840;52.516;13.294;2024-02-16T14:03:43;7.25;;;3.33;;
47089;SDS011;32840;52.516;13.294;2024-02-16T14:06:29;6.22;;;2.58;;
47089;SDS011;32840;52.516;13.294;2024-02-16T14:09:24;39.88;;;8.40;;
47089;SDS011;32840;52.516;13.294;2024-02-16T14:12:32;4.45;;;2.92;;
47089;SDS011;32840;52.516;13.294;2024-02-16T14:15:20;4.75;;;2.60;;
47089;SDS011;32840;52.516;13.294;2024-02-16T14:18:08;3.67;;;2.75;;
47089;SDS011;32840;52.516;13.294;2024-02-16T14:20:56;4.72;;;2.70;;
47089;SDS011;32840;52.516;13.294;2024-02-16T14:23:41;6.53;;;2.33;;
47089;SDS011;32840;52.516;13.294;2024-02-16T14:29:38;6.95;;;2.20;;
47089;SDS011;32840;52.516;13.294;2024-02-16T14:32:26;7.00;;;2.20;;
47089;SDS011;32840;52.516;13.294;2024-02-16T14:35:11;7.70;;;2.50;;
47089;SDS011;32840;52.516;13.294;2024-02-16T14:37:56;6.90;;;2.75;;
47089;SDS011;32840;52.516;13.294;2024-02-16T14:40:43;7.55;;;3.17;;
47089;SDS011;32840;52.516;13.294;2024-02-16T14:43:29;7.50;;;2.70;;
47089;SDS011;32840;52.516;13.294;2024-02-16T14:46:16;4.60;;;2.30;;
47089;SDS011;32840;52.516;13.294;2024-02-16T14:49:27;5.28;;;2.28;;
47089;SDS011;32840;52.516;13.294;2024-02-16T14:52:16;6.32;;;2.72;;
47089;SDS011;32840;52.516;13.294;2024-02-16T14:55:03;4.53;;;2.33;;
47089;SDS011;32840;52.516;13.294;2024-02-16T14:57:54;6.80;;;2.47;;
47089;SDS011;32840;52.516;13.294;2024-02-16T15:00:40;12.90;;;8.80;;
47089;SDS011;32840;52.516;13.294;2024-02-16T15:03:26;5.82;;;2.17;;
47089;SDS011;32840;52.516;13.294;2024-02-16T15:06:16;5.95;;;2.40;;
47089;SDS011;32840;52.516;13.294;2024-02-16T15:09:11;5.35;;;3.55;;
47089;SDS011;32840;52.516;13.294;2024-02-16T15:11:56;3.75;;;2.20;;
47089;SDS011;32840;52.516;13.294;2024-02-16T15:14:46;6.80;;;2.38;;
47089;SDS011;32840;52.516;13.294;2024-02-16T15:17:31;4.63;;;2.13;;
47089;SDS011;32840;52.516;13.294;2024-02-16T15:20:16;11.15;;;4.55;;
47089;SDS011;32840;52.516;13.294;2024-02-16T15:23:04;4.63;;;2.10;;
47089;SDS011;32840;52.516;13.294;2024-02-16T15:25:50;3.97;;;2.47;;
47089;SDS011;32840;52.516;13.294;2024-02-16T15:28:36;5.97;;;2.42;;
47089;SDS011;32840;52.516;13.294;2024-02-16T15:31:22;5.70;;;2.42;;
47089;SDS011;32840;52.516;13.294;2024-02-16T15:34:10;4.57;;;3.10;;
47089;SDS011;32840;52.516;13.294;2024-02-16T15:36:59;4.30;;;2.22;;
47089;SDS011;32840;52.516;13.294;2024-02-16T15:40:12;6.57;;;2.75;;
47089;SDS011;32840;52.516;13.294;2024-02-16T15:43:04;4.03;;;2.22;;
47089;SDS011;32840;52.516;13.294;2024-02-16T15:45:56;4.60;;;2.30;;
47089;SDS011;32840;52.516;13.294;2024-02-16T15:49:31;9.43;;;3.88;;
47089;SDS011;32840;52.516;13.294;2024-02-16T15:55:33;7.55;;;4.15;;
47089;SDS011;32840;52.516;13.294;2024-02-16T15:58:22;3.70;;;2.45;;
47089;SDS011;32840;52.516;13.294;2024-02-16T16:01:09;8.70;;;3.55;;
47089;SDS011;32840;52.516;13.294;2024-02-16T16:04:08;4.63;;;2.85;;
47089;SDS011;32840;52.516;13.294;2024-02-16T16:07:07;7.97;;;3.00;;
47089;SDS011;32840;52.516;13.294;2024-02-16T16:13:03;6.30;;;3.13;;
47089;SDS011;32840;52.516;13.294;2024-02-16T16:15:52;6.22;;;2.92;;
47089;SDS011;32840;52.516;13.294;2024-02-16T16:21:52;10.40;;;4.63;;
47089;SDS011;32840;52.516;13.294;2024-02-16T16:24:45;8.27;;;3.63;;
47089;SDS011;32840;52.516;13.294;2024-02-16T16:27:29;11.90;;;3.33;;
47089;SDS011;32840;52.516;13.294;2024-02-16T16:30:14;4.68;;;2.95;;
47089;SDS011;32840;52.516;13.294;2024-02-16T16:33:00;5.53;;;2.83;;
47089;SDS011;32840;52.516;13.294;2024-02-16T16:35:46;9.70;;;3.05;;
47089;SDS011;32840;52.516;13.294;2024-02-16T16:38:34;7.43;;;3.38;;
47089;SDS011;32840;52.516;13.294;2024-02-16T16:41:21;7.18;;;2.60;;
47089;SDS011;32840;52.516;13.294;2024-02-16T16:44:21;5.95;;;3.30;;
47089;SDS011;32840;52.516;13.294;2024-02-16T16:47:09;7.68;;;3.13;;
47089;SDS011;32840;52.516;13.294;2024-02-16T16:50:11;6.22;;;3.25;;
47089;SDS011;32840;52.516;13.294;2024-02-16T16:55:44;8.20;;;3.47;;
47089;SDS011;32840;52.516;13.294;2024-02-16T16:58:30;8.32;;;5.35;;
47089;SDS011;32840;52.516;13.294;2024-02-16T17:01:15;12.75;;;5.28;;
47089;SDS011;32840;52.516;13.294;2024-02-16T17:04:00;7.95;;;3.75;;
47089;SDS011;32840;52.516;13.294;2024-02-16T17:06:48;6.30;;;3.40;;
47089;SDS011;32840;52.516;13.294;2024-02-16T17:09:44;7.60;;;3.95;;
47089;SDS011;32840;52.516;13.294;2024-02-16T17:12:37;6.80;;;3.30;;
47089;SDS011;32840;52.516;13.294;2024-02-16T17:15:26;8.23;;;3.50;;
47089;SDS011;32840;52.516;13.294;2024-02-16T17:18:14;6.22;;;3.47;;
47089;SDS011;32840;52.516;13.294;2024-02-16T17:24:02;7.28;;;3.55;;
47089;SDS011;32840;52.516;13.294;2024-02-16T17:26:54;6.30;;;3.20;;
47089;SDS011;32840;52.516;13.294;2024-02-16T17:30:24;5.67;;;3.10;;